NC88 weather

Outer Banks Heliport
Nags Head, North Carolina, United States

Public forecast

Using degrees Fahrenheit for public forecast. Weather courtesy of forecast.io.

Closest aviation weather report (METAR) to Outer Banks Heliport

Closest report is First Flight Airport, 2.3 nm (4.3 km) NNW. Retrieved 2019/10/16 10:35 UTC (0 seconds ago):

KFFA 161035Z AUTO 12005KT 10SM CLR 22/17 A2989 RMK AO2 T02150166

Closest aviation forecast (TAF) to Outer Banks Heliport

Closest forecast is Elizabeth City Regional Airport & Coast Guard Air Station, 30.4 nm (56.3 km) WNW. Retrieved 2019/10/16 06:33 UTC (4 hours ago):

TAF KECG 160529Z 1606/1706 VRB03KT P6SM BKN250 FM161400 15010KT 6SM -SHRA OVC060 FM161900 18014KT 6SM SHRA OVC010 FM162100 24012G19KT P6SM OVC010 FM170200 29014G23KT P6SM FEW090